Time;durP1;ratioP1;P1;durP2;ratioP2;P2;SDS_P1;SDS_P2;PMS_P1;PMS_P2;Temp;Humidity;BMP_temperature;BMP_pressure;BME280_temperature;BME280_humidity;BME280_pressure;Samples;Min_cycle;Max_cycle;Signal;HPM_P1;HPM_P2
2024/04/12 00:00:57;;;;;;;0.70;0.70;;;18.10;68.40;;;;;;6548107;21;20219;-85
2024/04/12 00:03:23;;;;;;;3.35;1.00;;;18.10;68.60;;;;;;6542751;21;20228;-85
2024/04/12 00:05:49;;;;;;;1.10;0.77;;;18.10;68.60;;;;;;6586113;21;20266;-85
2024/04/12 00:08:16;;;;;;;1.80;0.93;;;18.10;68.30;;;;;;6542190;21;20212;-85
2024/04/12 00:10:43;;;;;;;1.90;1.00;;;18.10;68.50;;;;;;6542804;21;20216;-86
2024/04/12 00:13:09;;;;;;;2.17;0.95;;;18.20;68.60;;;;;;6499538;21;20245;-85
2024/04/12 00:15:38;;;;;;;2.40;1.05;;;18.10;68.60;;;;;;6501414;21;20223;-86
2024/04/12 00:18:05;;;;;;;1.83;0.98;;;18.10;68.80;;;;;;6586884;21;20246;-86
2024/04/12 00:20:31;;;;;;;1.33;1.00;;;18.10;68.60;;;;;;6500496;21;20228;-86
2024/04/12 00:22:57;;;;;;;1.67;1.10;;;18.10;68.30;;;;;;6542905;21;20212;-85
2024/04/12 00:25:23;;;;;;;1.25;1.00;;;18.10;68.50;;;;;;6632140;21;20220;-85
2024/04/12 00:27:54;;;;;;;3.97;0.93;;;18.10;68.70;;;;;;6542796;21;20258;-86
2024/04/12 00:33:12;;;;;;;2.45;1.00;;;18.10;68.20;;;;;;6519033;21;20328;-85
2024/04/12 00:35:40;;;;;;;1.05;0.80;;;18.20;68.70;;;;;;6505521;21;20308;-85
2024/04/12 00:38:09;;;;;;;1.77;0.98;;;18.10;68.60;;;;;;6543836;21;20207;-85
2024/04/12 00:40:40;;;;;;;1.55;0.90;;;18.10;68.70;;;;;;6545746;21;20242;-85
2024/04/12 00:43:11;;;;;;;2.53;0.80;;;18.10;68.60;;;;;;6544928;21;20526;-86
2024/04/12 00:45:52;;;;;;;2.63;1.02;;;18.10;68.80;;;;;;6546770;21;20228;-86
2024/04/12 00:48:21;;;;;;;1.60;0.90;;;18.10;68.50;;;;;;6589485;21;20207;-85
2024/04/12 00:50:47;;;;;;;2.38;1.08;;;18.10;68.80;;;;;;6419310;21;20309;-85
2024/04/12 00:53:14;;;;;;;1.73;0.98;;;18.10;68.90;;;;;;6545559;21;20211;-85
2024/04/12 00:55:40;;;;;;;1.73;0.80;;;18.10;68.90;;;;;;6545022;21;20227;-85
2024/04/12 00:58:09;;;;;;;1.35;0.98;;;18.10;68.70;;;;;;6634893;21;20346;-86
2024/04/12 01:00:35;;;;;;;1.98;1.10;;;18.00;68.80;;;;;;6547442;21;20266;-85
2024/04/12 01:03:14;;;;;;;2.80;1.17;;;18.10;69.00;;;;;;6545057;21;20220;-85
2024/04/12 01:05:40;;;;;;;2.25;1.02;;;18.10;69.00;;;;;;6511104;21;20303;-85
2024/04/12 01:08:06;;;;;;;1.10;0.90;;;18.00;69.00;;;;;;6502038;21;20722;-85
2024/04/12 01:10:36;;;;;;;1.80;0.85;;;18.00;68.70;;;;;;6545224;21;20255;-85
2024/04/12 01:13:02;;;;;;;1.02;0.90;;;18.00;68.90;;;;;;6590291;21;20287;-85
2024/04/12 01:15:37;;;;;;;0.80;0.80;;;18.00;69.00;;;;;;6502128;21;20268;-86
2024/04/12 01:18:07;;;;;;;1.65;1.20;;;18.00;69.70;;;;;;6550641;21;20259;-85
2024/04/12 01:20:36;;;;;;;2.60;0.90;;;18.00;68.90;;;;;;6548627;21;20220;-85
2024/04/12 01:23:03;;;;;;;0.70;0.70;;;18.00;68.70;;;;;;6544794;21;20321;-85
2024/04/12 01:25:29;;;;;;;1.20;0.77;;;18.00;68.70;;;;;;6503147;21;20686;-85
2024/04/12 01:28:02;;;;;;;1.20;0.82;;;18.10;68.60;;;;;;6544975;21;20224;-85
2024/04/12 01:30:30;;;;;;;1.35;0.90;;;18.00;68.50;;;;;;6461012;21;20220;-85
2024/04/12 01:32:57;;;;;;;1.20;0.80;;;18.10;68.60;;;;;;6546045;21;20212;-85
2024/04/12 01:35:24;;;;;;;1.33;1.23;;;18.00;68.90;;;;;;6588656;21;20212;-86
2024/04/12 01:37:51;;;;;;;2.95;1.25;;;18.00;68.70;;;;;;6635014;21;20283;-85
2024/04/12 01:40:24;;;;;;;2.00;0.95;;;18.00;68.70;;;;;;6503498;21;20227;-85
2024/04/12 01:42:51;;;;;;;1.73;0.88;;;18.00;68.90;;;;;;6463428;21;20667;-87
2024/04/12 01:45:17;;;;;;;1.77;1.00;;;18.00;69.00;;;;;;6488398;21;20233;-85
2024/04/12 01:47:46;;;;;;;0.93;0.82;;;18.10;69.10;;;;;;6450388;21;20243;-85
2024/04/12 01:50:13;;;;;;;1.23;1.00;;;18.00;68.90;;;;;;6535708;21;20251;-85
2024/04/12 01:52:59;;;;;;;1.83;1.00;;;18.00;68.70;;;;;;6493226;21;20272;-85
2024/04/12 01:55:32;;;;;;;2.85;1.17;;;18.00;68.80;;;;;;6459786;21;20236;-85
2024/04/12 01:58:00;;;;;;;4.22;1.27;;;18.00;69.00;;;;;;6451652;21;20259;-85
2024/04/12 02:00:27;;;;;;;1.20;0.90;;;18.00;69.10;;;;;;6449863;21;20233;-85
2024/04/12 02:02:54;;;;;;;2.65;1.30;;;18.00;68.70;;;;;;6536054;21;20277;-85
2024/04/12 02:05:38;;;;;;;2.08;0.93;;;18.00;68.50;;;;;;6493279;21;20212;-86
2024/04/12 02:08:08;;;;;;;1.38;1.00;;;18.00;68.60;;;;;;6461146;21;20251;-85
2024/04/12 02:10:41;;;;;;;1.48;0.90;;;18.00;68.70;;;;;;6493335;21;20261;-86
2024/04/12 02:13:10;;;;;;;1.25;0.90;;;18.00;68.80;;;;;;6494259;21;20217;-86
2024/04/12 02:15:40;;;;;;;1.67;1.15;;;18.00;68.90;;;;;;6536717;21;20255;-85
2024/04/12 02:18:05;;;;;;;1.75;0.80;;;18.00;68.60;;;;;;6452510;21;20221;-85
2024/04/12 02:20:34;;;;;;;1.60;0.93;;;18.00;68.70;;;;;;6483725;22;20211;-85
2024/04/12 02:23:06;;;;;;;2.65;1.15;;;18.00;68.90;;;;;;6492948;21;20217;-85
2024/04/12 02:25:33;;;;;;;1.05;0.85;;;18.00;69.00;;;;;;6453116;21;20244;-85
2024/04/12 02:28:00;;;;;;;1.80;0.80;;;18.00;68.80;;;;;;6491952;21;20221;-86
2024/04/12 02:30:26;;;;;;;1.48;1.02;;;18.00;68.80;;;;;;6493300;21;20217;-85
2024/04/12 02:32:52;;;;;;;1.38;0.88;;;18.00;68.90;;;;;;6535441;21;20345;-84
2024/04/12 02:35:22;;;;;;;1.58;0.90;;;18.00;68.90;;;;;;6492503;21;20252;-86
2024/04/12 02:37:50;;;;;;;1.40;1.02;;;18.00;68.90;;;;;;6449448;21;20221;-85
2024/04/12 02:40:18;;;;;;;1.02;0.73;;;17.90;68.90;;;;;;6580896;21;20900;-85
2024/04/12 02:42:45;;;;;;;1.67;0.98;;;17.90;68.80;;;;;;6493924;21;20311;-85
2024/04/12 02:45:12;;;;;;;1.45;0.90;;;18.00;69.10;;;;;;6504614;21;20263;-85
2024/04/12 02:47:41;;;;;;;2.53;1.00;;;17.90;69.00;;;;;;6544124;21;20272;-85
2024/04/12 02:50:10;;;;;;;1.35;0.80;;;17.90;69.20;;;;;;6544207;21;20224;-85
2024/04/12 02:52:38;;;;;;;2.60;1.20;;;17.90;68.90;;;;;;6545395;21;20216;-85
2024/04/12 02:55:12;;;;;;;1.42;0.90;;;17.90;68.80;;;;;;6632669;21;20216;-85
2024/04/12 02:57:41;;;;;;;1.40;0.98;;;18.00;68.80;;;;;;6546603;21;20571;-85
2024/04/12 03:00:21;;;;;;;2.10;0.98;;;17.90;69.10;;;;;;6502243;21;20247;-84
2024/04/12 03:02:51;;;;;;;1.08;1.00;;;18.00;69.10;;;;;;6552822;21;20207;-84
2024/04/12 03:05:18;;;;;;;1.73;0.90;;;18.00;69.20;;;;;;6587124;21;20220;-85
2024/04/12 03:07:46;;;;;;;1.58;1.00;;;17.90;68.90;;;;;;6543955;21;20255;-85
2024/04/12 03:10:18;;;;;;;2.13;1.15;;;17.90;68.90;;;;;;6544791;21;20219;-85
2024/04/12 03:12:45;;;;;;;1.65;0.98;;;17.90;69.00;;;;;;6504996;21;20220;-85
2024/04/12 03:15:11;;;;;;;1.42;0.80;;;17.90;69.00;;;;;;6501497;21;20321;-85
2024/04/12 03:17:36;;;;;;;2.03;1.20;;;17.90;68.80;;;;;;6587275;21;20585;-85
2024/04/12 03:20:03;;;;;;;2.08;0.93;;;17.90;68.80;;;;;;6543498;21;20664;-85
2024/04/12 03:22:30;;;;;;;2.03;1.00;;;17.90;69.00;;;;;;6543798;21;20220;-85
2024/04/12 03:24:56;;;;;;;1.77;0.80;;;17.90;69.00;;;;;;6633449;21;20701;-85
2024/04/12 03:27:22;;;;;;;1.48;0.90;;;17.90;69.00;;;;;;6587501;21;20212;-85
2024/04/12 03:29:49;;;;;;;1.30;0.85;;;17.90;69.20;;;;;;6543655;21;20252;-85
2024/04/12 03:32:15;;;;;;;1.55;1.10;;;17.80;69.20;;;;;;6544750;21;20317;-85
2024/04/12 03:34:41;;;;;;;2.00;1.10;;;17.90;68.90;;;;;;6500845;21;20227;-86
2024/04/12 03:39:47;;;;;;;2.50;1.40;;;17.80;70.00;;;;;;6591454;21;20267;-85
2024/04/12 03:42:18;;;;;;;3.83;1.23;;;17.90;69.20;;;;;;6543343;21;20216;-85
2024/04/12 03:44:43;;;;;;;2.60;1.17;;;17.90;69.30;;;;;;6503914;21;20224;-85
2024/04/12 03:47:10;;;;;;;1.25;0.90;;;17.90;69.20;;;;;;6500303;21;20744;-85
2024/04/12 03:49:39;;;;;;;1.45;1.00;;;17.80;69.20;;;;;;6543743;21;20314;-85
2024/04/12 03:52:11;;;;;;;1.40;1.00;;;17.90;69.50;;;;;;6587961;21;20613;-85
2024/04/12 03:54:36;;;;;;;2.15;1.00;;;17.80;69.40;;;;;;6544186;21;20262;-85
2024/04/12 03:57:06;;;;;;;2.05;1.17;;;17.90;69.40;;;;;;6500390;21;20216;-85
2024/04/12 03:59:34;;;;;;;2.05;0.73;;;17.80;69.30;;;;;;6586664;21;20216;-84
2024/04/12 04:02:06;;;;;;;1.20;0.90;;;17.80;69.40;;;;;;6501648;21;20216;-85
2024/04/12 04:04:37;;;;;;;2.17;1.00;;;17.80;69.10;;;;;;6547718;21;20258;-85
2024/04/12 04:07:04;;;;;;;1.85;1.15;;;17.90;69.00;;;;;;6544873;21;20254;-85
2024/04/12 04:09:31;;;;;;;2.22;1.00;;;17.90;69.20;;;;;;6500274;21;20212;-85
2024/04/12 04:11:57;;;;;;;2.00;1.00;;;17.80;69.30;;;;;;6501801;21;20220;-85
2024/04/12 04:14:25;;;;;;;1.63;0.77;;;17.90;69.20;;;;;;6543168;21;20559;-85
2024/04/12 04:16:55;;;;;;;1.85;1.10;;;17.80;69.30;;;;;;6542845;21;20799;-85
2024/04/12 04:19:33;;;;;;;1.98;0.82;;;17.90;69.30;;;;;;6501831;21;20283;-85
2024/04/12 04:22:01;;;;;;;1.67;1.10;;;17.80;69.30;;;;;;6632757;21;20325;-85
2024/04/12 04:24:28;;;;;;;1.65;0.90;;;17.80;69.30;;;;;;6544067;21;20275;-85
2024/04/12 04:26:54;;;;;;;1.95;1.05;;;17.80;69.40;;;;;;6543833;21;20212;-85
2024/04/12 04:29:20;;;;;;;1.35;0.80;;;17.80;69.30;;;;;;6543303;21;20517;-85
2024/04/12 04:31:47;;;;;;;1.83;0.95;;;17.80;69.30;;;;;;6542971;21;20220;-85
2024/04/12 04:34:14;;;;;;;1.73;0.90;;;17.80;69.30;;;;;;6543327;21;20220;-85
2024/04/12 04:36:40;;;;;;;2.47;1.00;;;17.80;69.40;;;;;;6543715;21;20212;-85
2024/04/12 04:39:06;;;;;;;1.73;0.80;;;17.80;69.50;;;;;;6543943;21;20261;-85
2024/04/12 04:41:33;;;;;;;1.33;0.95;;;17.80;69.40;;;;;;6543425;21;20259;-85
2024/04/12 04:43:59;;;;;;;2.30;1.30;;;17.80;69.40;;;;;;6500631;21;20280;-85
2024/04/12 04:46:26;;;;;;;1.45;1.05;;;17.70;69.20;;;;;;6534085;21;20267;-85
2024/04/12 04:48:54;;;;;;;1.48;1.05;;;17.80;69.50;;;;;;6534457;21;20217;-85
2024/04/12 04:51:20;;;;;;;1.52;1.00;;;17.80;69.40;;;;;;6491515;21;20248;-85
2024/04/12 04:53:46;;;;;;;2.13;1.00;;;17.80;69.00;;;;;;6534398;21;20261;-85
2024/04/12 04:56:24;;;;;;;2.30;1.13;;;17.80;69.20;;;;;;6533449;21;20229;-85
2024/04/12 04:58:51;;;;;;;1.50;1.10;;;17.80;69.00;;;;;;6534258;21;20517;-85
2024/04/12 05:01:17;;;;;;;1.27;0.85;;;17.80;69.20;;;;;;6534271;21;20221;-85
2024/04/12 05:03:49;;;;;;;1.88;0.90;;;17.80;69.30;;;;;;6534991;21;20255;-85
2024/04/12 05:06:24;;;;;;;1.70;0.90;;;17.80;69.00;;;;;;6534286;21;20543;-85
2024/04/12 05:08:54;;;;;;;2.22;1.20;;;17.80;69.30;;;;;;6537368;21;20322;-85
2024/04/12 05:11:24;;;;;;;1.15;0.80;;;17.80;69.20;;;;;;6406836;21;20225;-85
2024/04/12 05:13:55;;;;;;;1.52;0.70;;;17.80;69.10;;;;;;6408047;21;20276;-85
2024/04/12 05:16:22;;;;;;;1.23;0.90;;;17.80;69.10;;;;;;6493377;21;20265;-86
2024/04/12 05:18:49;;;;;;;1.30;0.80;;;17.80;69.00;;;;;;6534727;21;20322;-85
2024/04/12 05:21:15;;;;;;;2.42;0.85;;;17.80;68.90;;;;;;6406392;21;20233;-85
2024/04/12 05:23:42;;;;;;;1.85;0.98;;;17.90;68.90;;;;;;6491133;21;20217;-85
2024/04/12 05:26:13;;;;;;;2.20;1.05;;;17.90;68.80;;;;;;6491641;21;20256;-85
2024/04/12 05:28:39;;;;;;;1.30;1.00;;;17.90;68.70;;;;;;6449459;21;20225;-85
2024/04/12 05:31:11;;;;;;;1.75;1.05;;;17.90;68.70;;;;;;6579867;21;20260;-85
2024/04/12 05:33:42;;;;;;;1.30;1.02;;;17.90;68.50;;;;;;6580306;21;20217;-85
2024/04/12 05:36:09;;;;;;;1.77;0.90;;;17.90;68.60;;;;;;6441675;22;20289;-85
2024/04/12 05:38:36;;;;;;;1.67;0.80;;;18.00;68.70;;;;;;6441426;22;20275;-85
2024/04/12 05:41:04;;;;;;;1.98;0.80;;;17.90;68.70;;;;;;6443067;22;20557;-85
2024/04/12 05:43:30;;;;;;;1.38;0.90;;;17.90;68.70;;;;;;6443918;22;20240;-85
2024/04/12 05:45:57;;;;;;;1.90;1.00;;;17.90;68.70;;;;;;6485207;22;20336;-85
2024/04/12 05:48:24;;;;;;;2.45;1.05;;;18.00;68.70;;;;;;6484747;22;20210;-85
2024/04/12 05:50:53;;;;;;;1.58;0.82;;;17.90;68.60;;;;;;6484928;22;20266;-85
2024/04/12 05:53:24;;;;;;;2.03;0.90;;;18.00;68.40;;;;;;6443553;22;20778;-85
2024/04/12 05:56:20;;;;;;;2.53;1.08;;;18.00;68.10;;;;;;6441883;22;20822;-85
2024/04/12 05:58:36;;;;;;;1.73;1.10;;;18.10;68.40;;;;;;6492718;22;20218;-85
2024/04/12 06:01:07;;;;;;;1.58;0.90;;;18.00;68.30;;;;;;6443641;22;20308;-86
2024/04/12 06:03:34;;;;;;;1.42;1.08;;;18.00;68.40;;;;;;6487788;22;20211;-85
2024/04/12 06:06:00;;;;;;;1.83;1.00;;;18.00;68.70;;;;;;6445691;21;20226;-85
2024/04/12 06:08:26;;;;;;;1.60;1.00;;;17.90;68.50;;;;;;6538869;21;20572;-86
2024/04/12 06:10:55;;;;;;;2.60;1.35;;;17.90;68.40;;;;;;6495593;21;20259;-85
2024/04/12 06:13:23;;;;;;;1.67;0.98;;;18.00;68.00;;;;;;6456229;21;20217;-85
2024/04/12 06:15:49;;;;;;;1.60;0.90;;;18.10;68.00;;;;;;6497275;21;20272;-85
2024/04/12 06:18:18;;;;;;;0.98;0.70;;;18.00;68.10;;;;;;6496122;21;20813;-85
2024/04/12 06:20:44;;;;;;;1.88;0.90;;;18.10;67.50;;;;;;6496342;21;20220;-86
2024/04/12 06:23:11;;;;;;;1.33;0.90;;;18.20;67.30;;;;;;6496604;21;20247;-85
2024/04/12 06:25:38;;;;;;;1.25;0.85;;;18.20;66.90;;;;;;6539467;21;20766;-86
2024/04/12 06:28:11;;;;;;;1.77;0.90;;;18.20;66.90;;;;;;6541041;21;20276;-85
2024/04/12 06:30:45;;;;;;;1.63;0.93;;;18.20;67.10;;;;;;6459525;21;20217;-85
2024/04/12 06:33:12;;;;;;;1.63;0.90;;;18.20;66.70;;;;;;6541187;21;20212;-86
2024/04/12 06:35:40;;;;;;;2.08;1.00;;;18.20;66.50;;;;;;6584262;21;20340;-85
2024/04/12 06:38:08;;;;;;;1.67;0.80;;;18.30;66.80;;;;;;6540913;21;20513;-84
2024/04/12 06:40:37;;;;;;;3.03;0.90;;;18.20;67.00;;;;;;6541117;21;20612;-85
2024/04/12 06:43:07;;;;;;;0.82;0.70;;;18.20;66.80;;;;;;6458325;21;20657;-85
2024/04/12 06:45:41;;;;;;;1.70;1.15;;;18.20;66.40;;;;;;6509883;21;20270;-85
2024/04/12 06:50:54;;;;;;;1.42;0.88;;;18.20;66.10;;;;;;6560109;21;20294;-85
2024/04/12 06:53:24;;;;;;;0.90;0.80;;;18.20;66.80;;;;;;6595419;21;20309;-85
2024/04/12 06:55:55;;;;;;;0.95;0.65;;;18.30;66.10;;;;;;6549623;21;20247;-85
2024/04/12 06:58:21;;;;;;;0.80;0.70;;;18.30;66.10;;;;;;6505681;21;20220;-84
2024/04/12 07:00:55;;;;;;;1.67;1.00;;;18.30;65.50;;;;;;6503024;21;20220;-86
2024/04/12 07:03:22;;;;;;;3.20;0.80;;;18.40;65.90;;;;;;6546120;21;20259;-85
2024/04/12 07:05:49;;;;;;;1.67;0.98;;;18.30;65.90;;;;;;6545768;21;20662;-85
2024/04/12 07:08:16;;;;;;;1.45;0.85;;;18.30;66.20;;;;;;6588647;21;20216;-86
2024/04/12 07:10:48;;;;;;;1.90;0.70;;;18.30;66.30;;;;;;6546538;21;20212;-85
2024/04/12 07:13:16;;;;;;;1.23;0.80;;;18.30;65.60;;;;;;6548647;21;20220;-86
2024/04/12 07:15:45;;;;;;;1.40;0.80;;;18.30;66.70;;;;;;6503229;21;20325;-86
2024/04/12 07:18:12;;;;;;;1.50;0.77;;;18.40;65.60;;;;;;6547366;21;20258;-86
2024/04/12 07:20:40;;;;;;;0.95;0.70;;;18.40;65.40;;;;;;6503064;21;20220;-85
2024/04/12 07:23:10;;;;;;;1.40;0.80;;;18.40;65.80;;;;;;6588884;21;20254;-86
2024/04/12 07:25:39;;;;;;;1.65;0.90;;;18.40;66.20;;;;;;6504931;21;20255;-86
2024/04/12 07:28:08;;;;;;;2.08;1.10;;;18.30;66.40;;;;;;6547302;21;20253;-86
2024/04/12 07:30:37;;;;;;;1.25;0.90;;;18.30;66.40;;;;;;6547159;21;20243;-86
2024/04/12 07:33:05;;;;;;;1.08;0.70;;;18.30;66.30;;;;;;6545735;21;20211;-85
2024/04/12 07:35:32;;;;;;;1.52;0.85;;;18.30;66.10;;;;;;6544110;21;20268;-85
2024/04/12 07:37:59;;;;;;;1.10;0.75;;;18.40;65.30;;;;;;6501656;21;20220;-85
2024/04/12 07:40:31;;;;;;;1.40;0.90;;;18.30;66.30;;;;;;6500445;21;20216;-85
2024/04/12 07:42:58;;;;;;;1.15;0.80;;;18.30;66.30;;;;;;6504175;21;20247;-85
2024/04/12 07:45:24;;;;;;;2.08;1.00;;;18.30;66.50;;;;;;6489174;21;20739;-84
2024/04/12 07:47:52;;;;;;;1.67;0.82;;;18.30;66.30;;;;;;6490348;21;20330;-85
2024/04/12 07:50:28;;;;;;;1.33;0.75;;;18.30;66.00;;;;;;6492834;21;20225;-87
2024/04/12 07:52:57;;;;;;;1.80;0.90;;;18.30;65.50;;;;;;6495157;21;20846;-85
2024/04/12 07:55:28;;;;;;;1.40;0.68;;;18.30;65.60;;;;;;6583878;21;20273;-87
2024/04/12 07:57:54;;;;;;;1.33;0.90;;;18.30;65.80;;;;;;6497970;21;20229;-87
2024/04/12 08:00:35;;;;;;;0.85;0.80;;;18.40;65.60;;;;;;6495959;21;20528;-86
2024/04/12 08:03:06;;;;;;;1.42;0.80;;;18.40;65.70;;;;;;6542241;21;20260;-85
2024/04/12 08:05:42;;;;;;;1.85;0.70;;;18.40;65.60;;;;;;6495190;21;20232;-87
2024/04/12 08:08:15;;;;;;;1.65;0.80;;;18.40;65.20;;;;;;6501213;21;20317;-86
2024/04/12 08:10:56;;;;;;;1.05;0.90;;;18.40;66.10;;;;;;6443963;22;20219;-90
2024/04/12 08:13:43;;;;;;;1.20;0.60;;;18.40;64.80;;;;;;6300613;22;20382;-88
2024/04/12 08:16:24;;;;;;;1.10;0.73;;;18.40;64.90;;;;;;6296005;22;20322;-87
2024/04/12 08:18:54;;;;;;;0.93;0.70;;;18.40;64.60;;;;;;6291586;22;20234;-90
2024/04/12 08:21:37;;;;;;;;;;;;;;;;;;;;;
2024/04/12 08:27:55;;;;;;;1.38;0.60;;;18.50;64.60;;;;;;6158556;23;20233;-87
2024/04/12 08:31:18;;;;;;;0.80;0.60;;;18.50;64.80;;;;;;6018634;23;20233;-87
2024/04/12 08:34:09;;;;;;;;;;;;;;;;;;;;;
2024/04/12 08:37:01;;;;;;;;;;;;;;;;;;;;;
2024/04/12 08:39:42;;;;;;;0.60;0.50;;;18.60;64.00;;;;;;5934014;23;20230;-87
2024/04/12 08:46:43;;;;;;;0.80;0.60;;;18.60;64.50;;;;;;6076072;23;20299;-86
2024/04/12 08:50:27;;;;;;;1.40;0.68;;;18.50;64.80;;;;;;6144988;23;20586;-89
2024/04/12 08:52:52;;;;;;;0.93;0.60;;;18.60;64.10;;;;;;6005912;23;20234;-87
2024/04/12 08:55:31;;;;;;;0.98;0.80;;;18.60;64.50;;;;;;5975676;23;20323;-88
2024/04/12 08:58:06;;;;;;;1.25;0.70;;;18.60;64.40;;;;;;5929867;24;20241;-88
2024/04/12 09:00:45;;;;;;;1.20;0.70;;;18.60;64.00;;;;;;5883570;24;20231;-87
2024/04/12 09:03:44;;;;;;;1.48;0.60;;;18.50;64.40;;;;;;5928210;23;20231;-87
2024/04/12 09:09:17;;;;;;;1.00;0.68;;;18.60;63.70;;;;;;5864998;24;20291;-89
2024/04/12 09:11:48;;;;;;;1.45;0.73;;;18.60;63.50;;;;;;5923709;24;20294;-87
2024/04/12 09:14:40;;;;;;;1.02;0.63;;;18.60;63.80;;;;;;5862491;24;20779;-88
2024/04/12 09:17:25;;;;;;;0.60;0.52;;;18.60;63.40;;;;;;5875646;24;20342;-88
2024/04/12 09:19:52;;;;;;;1.05;0.80;;;18.60;64.30;;;;;;5920534;24;20264;-86
2024/04/12 09:22:54;;;;;;;1.42;0.80;;;18.60;64.20;;;;;;5889082;23;20803;-88
2024/04/12 09:25:26;;;;;;;1.27;0.60;;;18.60;64.30;;;;;;5924120;24;20231;-88
2024/04/12 09:27:52;;;;;;;1.10;0.50;;;18.60;63.80;;;;;;5924112;24;20282;-86
2024/04/12 09:33:16;;;;;;;1.30;0.70;;;18.60;63.80;;;;;;6051486;23;20221;-85
2024/04/12 09:35:45;;;;;;;1.35;0.70;;;18.60;63.70;;;;;;6050784;23;20240;-85
2024/04/12 09:38:16;;;;;;;1.25;0.60;;;18.60;64.10;;;;;;6012166;23;20240;-85
2024/04/12 09:40:52;;;;;;;1.02;0.73;;;18.60;63.80;;;;;;6014792;23;20262;-85
2024/04/12 09:43:25;;;;;;;0.68;0.57;;;18.70;63.90;;;;;;5982733;23;20228;-86
2024/04/12 09:46:05;;;;;;;0.98;0.60;;;18.60;64.00;;;;;;6144541;22;20232;-85
2024/04/12 10:37:47;;;;;;;3.42;0.60;;;18.50;64.50;;;;;;6406170;22;20212;-85
2024/04/12 10:40:13;;;;;;;0.73;0.52;;;18.50;64.50;;;;;;6393400;22;20214;-85
2024/04/12 10:42:42;;;;;;;1.05;0.65;;;18.40;64.00;;;;;;6392787;22;20246;-85
2024/04/12 10:45:08;;;;;;;0.63;0.45;;;18.50;64.70;;;;;;6434064;22;20231;-85
2024/04/12 10:47:37;;;;;;;1.05;0.63;;;18.50;64.10;;;;;;6392006;22;20375;-85
2024/04/12 10:50:04;;;;;;;1.70;0.70;;;18.50;64.10;;;;;;6392297;22;20219;-85
2024/04/12 10:52:43;;;;;;;0.70;0.60;;;18.50;64.10;;;;;;6392420;22;20244;-85
2024/04/12 10:55:10;;;;;;;1.23;0.52;;;18.40;64.30;;;;;;6294209;22;20269;-86
2024/04/12 10:57:40;;;;;;;0.75;0.60;;;18.50;64.00;;;;;;6326973;22;20275;-85
2024/04/12 11:00:07;;;;;;;0.82;0.60;;;18.40;64.20;;;;;;6326532;22;20326;-85
2024/04/12 11:02:33;;;;;;;0.60;0.60;;;18.50;64.10;;;;;;6325866;22;20257;-85
2024/04/12 11:07:49;;;;;;;0.98;0.50;;;18.50;64.00;;;;;;6328726;22;20265;-85
2024/04/12 11:10:24;;;;;;;0.68;0.60;;;18.50;64.40;;;;;;6328382;22;20226;-85
2024/04/12 11:12:59;;;;;;;0.70;0.50;;;18.50;63.60;;;;;;6328759;22;20586;-85
2024/04/12 11:31:40;;;;;;;0.90;0.60;;;18.60;63.20;;;;;;6507647;21;20648;-85
2024/04/12 11:34:06;;;;;;;1.20;0.70;;;18.70;62.90;;;;;;6370215;21;20221;-85
2024/04/12 11:36:39;;;;;;;1.20;0.68;;;18.70;63.20;;;;;;6452894;21;20373;-85
2024/04/12 11:39:25;;;;;;;0.60;0.50;;;18.70;63.50;;;;;;6373193;21;20221;-85
2024/04/12 11:41:51;;;;;;;2.22;0.70;;;18.70;63.40;;;;;;6387348;21;20513;-84
2024/04/12 11:44:19;;;;;;;0.77;0.50;;;18.60;62.90;;;;;;6496762;21;20546;-84
2024/04/12 11:46:45;;;;;;;1.35;0.75;;;18.70;63.60;;;;;;6577237;21;20270;-85
2024/04/12 11:49:13;;;;;;;1.55;0.55;;;18.70;63.70;;;;;;6547839;21;20216;-84
2024/04/12 11:51:40;;;;;;;0.98;0.60;;;18.60;63.50;;;;;;6505402;21;20262;-85
2024/04/12 11:54:06;;;;;;;1.83;0.75;;;18.60;64.00;;;;;;6504012;21;20254;-85
2024/04/12 11:56:32;;;;;;;1.05;0.57;;;18.60;63.70;;;;;;6548970;21;20212;-85
2024/04/12 11:59:00;;;;;;;1.15;0.45;;;18.60;63.80;;;;;;6548440;21;20220;-85
2024/04/12 12:01:28;;;;;;;1.23;0.52;;;18.70;63.80;;;;;;6486482;22;20310;-85
2024/04/12 12:03:56;;;;;;;0.93;0.70;;;18.60;63.60;;;;;;6487196;22;20698;-85
2024/04/12 12:06:22;;;;;;;1.90;0.70;;;18.60;63.60;;;;;;6443528;22;20226;-85
2024/04/12 12:08:57;;;;;;;0.98;0.50;;;18.60;63.50;;;;;;6441428;22;20887;-86
2024/04/12 12:11:27;;;;;;;0.80;0.60;;;18.60;63.70;;;;;;6365500;22;20257;-85
2024/04/12 12:13:57;;;;;;;1.38;0.70;;;18.60;63.10;;;;;;6361755;22;20218;-85
2024/04/12 12:16:25;;;;;;;2.17;1.00;;;18.60;63.40;;;;;;6441241;22;20222;-85
2024/04/12 12:18:51;;;;;;;1.38;0.70;;;18.60;63.60;;;;;;6484614;22;20218;-85
2024/04/12 12:21:17;;;;;;;0.73;0.55;;;18.60;63.50;;;;;;6442118;22;20256;-85
2024/04/12 12:23:43;;;;;;;1.02;0.60;;;18.60;63.20;;;;;;6484391;22;20214;-84
2024/04/12 12:26:09;;;;;;;1.45;0.57;;;18.60;63.40;;;;;;6442752;22;20226;-85
2024/04/12 12:28:35;;;;;;;0.57;0.50;;;18.60;63.40;;;;;;6441755;22;20218;-85
2024/04/12 12:31:05;;;;;;;1.23;0.60;;;18.50;63.50;;;;;;6443934;22;20214;-85
2024/04/12 12:33:33;;;;;;;3.70;0.80;;;18.60;63.40;;;;;;6543350;21;20220;-85
2024/04/12 12:35:59;;;;;;;1.77;0.80;;;18.60;63.40;;;;;;6506179;21;20212;-85
2024/04/12 12:38:25;;;;;;;2.63;0.73;;;18.50;63.60;;;;;;6548498;21;20241;-84
2024/04/12 12:40:51;;;;;;;0.85;0.50;;;18.60;63.40;;;;;;6504491;21;20219;-85
2024/04/12 12:43:19;;;;;;;1.38;0.73;;;18.50;63.50;;;;;;6549637;21;20231;-85
2024/04/12 12:45:45;;;;;;;1.38;0.60;;;18.60;64.00;;;;;;6531694;21;20220;-85
2024/04/12 12:48:20;;;;;;;2.33;0.60;;;18.60;63.50;;;;;;6498017;21;20308;-84
2024/04/12 12:50:46;;;;;;;1.13;0.68;;;18.60;62.70;;;;;;6456318;21;20234;-84
2024/04/12 12:53:15;;;;;;;1.35;0.70;;;18.70;63.00;;;;;;6539848;21;20561;-85
2024/04/12 12:55:41;;;;;;;1.98;0.60;;;18.60;63.00;;;;;;6539924;21;20213;-85
2024/04/12 12:58:09;;;;;;;0.82;0.63;;;18.60;63.10;;;;;;6540343;21;20544;-85
2024/04/12 13:00:39;;;;;;;1.42;0.68;;;18.60;63.40;;;;;;6500235;21;20213;-84
2024/04/12 13:03:11;;;;;;;1.05;0.63;;;18.60;63.20;;;;;;6500455;21;20212;-85
2024/04/12 13:05:38;;;;;;;1.05;0.60;;;18.60;62.90;;;;;;6499458;21;20242;-85
2024/04/12 13:08:06;;;;;;;1.92;0.80;;;18.70;62.60;;;;;;6456732;21;20221;-85
2024/04/12 13:10:33;;;;;;;0.60;0.60;;;18.70;62.60;;;;;;6456464;21;20217;-84
2024/04/12 13:13:04;;;;;;;1.85;0.70;;;18.70;62.70;;;;;;6455269;21;20239;-85
2024/04/12 13:15:30;;;;;;;1.30;0.70;;;18.70;62.50;;;;;;6539543;21;20273;-84
2024/04/12 13:17:56;;;;;;;1.55;0.70;;;18.70;62.60;;;;;;6499283;21;20213;-85
2024/04/12 13:20:23;;;;;;;1.08;0.60;;;18.60;62.80;;;;;;6453195;21;20217;-84
2024/04/12 13:22:49;;;;;;;0.55;0.52;;;18.70;62.70;;;;;;6493909;21;20260;-85
2024/04/12 13:25:20;;;;;;;0.50;0.50;;;18.70;62.60;;;;;;6498343;21;20564;-85
2024/04/12 13:27:47;;;;;;;1.77;0.80;;;18.70;62.70;;;;;;6370839;21;20235;-85
2024/04/12 13:30:15;;;;;;;1.13;0.70;;;18.70;62.70;;;;;;6455599;21;20225;-85
2024/04/12 13:32:43;;;;;;;2.05;0.70;;;18.70;62.70;;;;;;6455366;21;20660;-85
2024/04/12 13:35:12;;;;;;;1.05;0.70;;;18.70;62.60;;;;;;6370864;21;20736;-85
2024/04/12 13:37:39;;;;;;;1.08;0.68;;;18.70;62.80;;;;;;6455244;21;20264;-85
2024/04/12 13:40:10;;;;;;;2.15;0.70;;;18.70;62.20;;;;;;6457352;21;20312;-87
2024/04/12 13:42:39;;;;;;;1.58;0.80;;;18.80;62.40;;;;;;6501504;21;20229;-85
2024/04/12 13:50:54;;;;;;;1.15;0.60;;;18.70;62.70;;;;;;6602208;21;20250;-85
2024/04/12 13:53:18;;;;;;;1.77;0.60;;;18.80;62.20;;;;;;6570434;21;20330;-85
2024/04/12 13:55:46;;;;;;;1.27;0.60;;;18.70;62.50;;;;;;6511616;21;20348;-84
2024/04/12 13:58:12;;;;;;;1.88;0.90;;;18.70;62.60;;;;;;6513844;21;20220;-85
2024/04/12 14:00:48;;;;;;;4.68;0.80;;;18.70;62.60;;;;;;6512721;21;20676;-84
2024/04/12 14:03:23;;;;;;;2.03;0.60;;;18.70;62.60;;;;;;6518347;21;20224;-84
2024/04/12 14:06:18;;;;;;;2.17;0.90;;;18.70;62.10;;;;;;6559688;21;20682;-85
2024/04/12 14:09:28;;;;;;;1.52;0.82;;;18.80;62.60;;;;;;6599973;21;20325;-85
2024/04/12 14:11:54;;;;;;;1.48;0.63;;;18.80;62.60;;;;;;6566566;21;20240;-84
2024/04/12 14:14:25;;;;;;;1.63;0.73;;;18.80;62.20;;;;;;6488965;22;20338;-85
2024/04/12 14:16:52;;;;;;;2.22;0.90;;;18.70;62.60;;;;;;6412475;22;20253;-84
2024/04/12 14:19:20;;;;;;;2.45;0.90;;;18.70;62.50;;;;;;6446869;22;20218;-84
2024/04/12 14:21:51;;;;;;;1.73;1.00;;;18.70;62.40;;;;;;6490467;22;20249;-85
2024/04/12 14:27:07;;;;;;;1.67;0.80;;;18.80;62.00;;;;;;6383211;22;20794;-85
2024/04/12 14:29:33;;;;;;;1.40;0.80;;;18.80;62.10;;;;;;6340983;22;20229;-85
2024/04/12 14:32:05;;;;;;;2.15;0.75;;;18.70;62.30;;;;;;6341413;22;20225;-85
2024/04/12 14:34:32;;;;;;;2.75;0.88;;;18.80;62.30;;;;;;6340032;22;20289;-85
2024/04/12 14:37:00;;;;;;;3.28;0.90;;;18.80;62.90;;;;;;6340661;22;20289;-85
2024/04/12 14:39:28;;;;;;;2.15;0.75;;;18.70;62.40;;;;;;6340904;22;20229;-85
2024/04/12 14:42:35;;;;;;;2.13;0.77;;;18.80;62.20;;;;;;6339367;22;20658;-85
2024/04/12 14:45:06;;;;;;;0.82;0.60;;;18.80;62.40;;;;;;6389357;22;20261;-85